Terminal Aerodrome Forecast
Issued by NWS

Home | Current Version | Previous Version | Text Only | Print | Product List | Glossary On
Versions: 1 2 3 4 5 6 7 8 9 10 11 12 13 14 15 16 17 18 19 20 21 22 23 24 25 26 27 28
000
FTUS46 KLOX 191744
TAFLAX
TAF
KLAX 191744Z 1918/2024 26005KT P6SM SCT040 SCT070 BKN090
     FM191900 26012G20KT P6SM SCT050
     FM192200 25022G32KT P6SM SCT050
     FM200300 27015KT P6SM SKC
     FM200600 28008KT P6SM SKC
     FM201200 13006KT P6SM BKN010
     FM201700 VRB03KT P6SM SKC
     FM202000 26012KT P6SM SKC=

USA.gov is the U.S. government's official web portal to all federal, state and local government web resources and services.